Accueil
METAR-TAF:

METAR-TAF

Aéroports :

Aéroport d'Oxford Kidlington

Oxford, Angleterre

latitude: 51-50-13N, longitude: 1-19-12W, altitude: 82 m

Observation

Le bulletin a été fait il y a 18 minutes, à 07:50 UTC
Vent 17 kt de sud/sud-ouest
Température 10°C
Humidité 93%
Pression 988 hPa
Visibilité: 9000 m
Nuages fragmentés à une hauteur de 900 ft
pluie faible

METAR: EGTK 200750Z 20017KT 9000 -RA BKN009 10/09 Q0988

Heure: 08:08 (08:08 UTC)

Prévision

Le bulletin a été fait il y a 1 heure et 15 minutes, à 06:53 UTC
Prévision valable du 20 à 06 UTC au 20 à 15 UTC
Vent 15 kt de sud/sud-ouest
Visibilité 10 km ou plus
Nuages fragmentés à une hauteur de 1000 ft
Temporairement
du 20 à 06 UTC au 20 à 15 UTC
Vent 18 kt de sud-ouest avec des rafales jusqu'à 30 kt
Visibilité: 3500 m
Nuages fragmentés à une hauteur de 700 ft
pluie, bruine, pluie

TAF: EGTK 200653Z 2006/2015 21015KT 9999 BKN010 TEMPO 2006/2015 22018G30KT 3500 RADZ RA BKN007

Observations et prévisions météorologiques de plus de 4000 aéroports (messages METAR et TAF).

Les stations disponibles sont représentées par des disques jaunes et rouges sur la carte.

Passer la souris dessus pour voir le nom de la station.

Cliquer dessus pour voir les observations et prévisions météorologiques.

Pour changer de carte: cliquez sur les boutons verts avec une croix noire pour zoomer, sur le bouton vert avec un tiret pour effectuer un zoom arrière, ou sur les flèches vertes pour les cartes adjacentes.


METAR-TAF: